TimeEST,TemperatureF,Dew PointF,Humidity,Sea Level PressureIn,VisibilityMPH,Wind Direction,Wind SpeedMPH,Gust SpeedMPH,PrecipitationIn,Events,Conditions,WindDirDegrees,DateUTC
12:51 AM,27.0,24.1,89,30.44,10.0,NW,3.5,-,N/A,,Clear,310,2013-03-09 05:51:00
1:51 AM,27.0,24.1,89,30.42,8.0,Calm,Calm,-,N/A,,Clear,0,2013-03-09 06:51:00
2:51 AM,27.0,23.0,85,30.39,8.0,Calm,Calm,-,N/A,,Clear,0,2013-03-09 07:51:00
3:51 AM,26.1,24.1,92,30.39,7.0,North,3.5,-,N/A,,Clear,10,2013-03-09 08:51:00
4:51 AM,24.1,21.0,88,30.39,6.0,Calm,Calm,-,N/A,,Clear,0,2013-03-09 09:51:00
5:51 AM,21.9,19.9,92,30.40,6.0,Calm,Calm,-,N/A,,Clear,0,2013-03-09 10:51:00
6:51 AM,23.0,21.0,92,30.41,3.0,Calm,Calm,-,N/A,Fog,Shallow Fog,0,2013-03-09 11:51:00
7:51 AM,26.1,25.0,96,30.42,6.0,East,3.5,-,N/A,,Scattered Clouds,100,2013-03-09 12:51:00
8:51 AM,33.1,28.0,82,30.41,10.0,ENE,3.5,-,N/A,,Mostly Cloudy,70,2013-03-09 13:51:00
9:51 AM,36.0,27.0,70,30.39,10.0,East,9.2,-,N/A,,Mostly Cloudy,90,2013-03-09 14:51:00
10:51 AM,39.0,27.0,62,30.38,10.0,ESE,8.1,-,N/A,,Mostly Cloudy,110,2013-03-09 15:51:00
11:51 AM,43.0,28.0,56,30.37,10.0,East,5.8,-,N/A,,Mostly Cloudy,100,2013-03-09 16:51:00
12:51 PM,45.0,28.0,52,30.35,10.0,SSE,5.8,-,N/A,,Mostly Cloudy,160,2013-03-09 17:51:00
1:51 PM,48.0,28.0,46,30.31,10.0,South,8.1,-,N/A,,Mostly Cloudy,180,2013-03-09 18:51:00
2:51 PM,50.0,28.0,43,30.27,10.0,SSE,6.9,-,N/A,,Scattered Clouds,160,2013-03-09 19:51:00
3:51 PM,52.0,28.0,40,30.25,10.0,SSE,4.6,-,N/A,,Mostly Cloudy,150,2013-03-09 20:51:00
4:51 PM,52.0,27.0,38,30.23,10.0,SSE,8.1,-,N/A,,Mostly Cloudy,160,2013-03-09 21:51:00
5:51 PM,50.0,27.0,41,30.23,10.0,SE,5.8,-,N/A,,Mostly Cloudy,130,2013-03-09 22:51:00
6:51 PM,45.0,26.1,48,30.22,10.0,SE,6.9,-,N/A,,Mostly Cloudy,130,2013-03-09 23:51:00
7:51 PM,43.0,26.1,51,30.22,10.0,SE,8.1,-,N/A,,Scattered Clouds,130,2013-03-10 00:51:00
8:51 PM,43.0,26.1,51,30.20,10.0,SE,9.2,-,N/A,,Scattered Clouds,130,2013-03-10 01:51:00
9:51 PM,43.0,24.1,47,30.18,10.0,SE,8.1,-,N/A,,Scattered Clouds,130,2013-03-10 02:51:00
10:51 PM,44.1,24.1,45,30.17,10.0,SE,10.4,-,N/A,,Mostly Cloudy,130,2013-03-10 03:51:00
11:51 PM,45.0,24.1,44,30.16,10.0,SE,9.2,-,N/A,,Mostly Cloudy,130,2013-03-10 04:51:00